Latest Weather Observations for Sydney Airport

IDN60801

Issued at 4:32 pm EDT Sunday 11 December 2016 (issued every 30 minutes, with the page automatically refreshed every 10 minutes)

About weather observations | Map of weather stations | Latest weather observations for NSW | Other Formats
Station Details ID: 066037 Name: SYDNEY AIRPORT AMO Lat: -33.95 Lon: 151.17 Height: 6.0 m
Data from the previous 72 hours. | See also: Recent months at Sydney Airport
Date/Time
EDT
Temp
°C
App
Temp
°C
Dew
Point
°C
Rel
Hum
%
Delta-T
°C
Wind Press
QNH
hPa
Press
MSL
hPa
Rain since
9am
mm
Dir  Spd
km/h
Gust
km/h
Spd
kts
Gust
kts
11/04:00pm 25.1 21.1 16.1 57 5.5 ENE 32 43 17 23 1020.0 1020.0 0.0
11/03:30pm 25.0 20.7 15.4 55 5.8 ENE 32 41 17 22 1020.0 1020.0 0.0
11/03:00pm 25.3 20.7 14.7 51 6.3 ENE 32 41 17 22 1020.3 1020.3 0.0
11/02:30pm 25.3 21.0 15.5 54 5.9 ENE 32 39 17 21 1020.3 1020.3 0.0
11/02:00pm 25.2 20.8 15.2 54 6.0 ENE 32 39 17 21 1020.3 1020.3 0.0
11/01:30pm 24.7 20.8 15.4 56 5.6 E 30 37 16 20 1020.7 1020.7 0.0
11/01:00pm 24.0 20.1 15.5 59 5.1 E 30 39 16 21 1020.9 1020.9 0.0
11/12:30pm 25.1 20.8 14.5 51 6.3 E 30 37 16 20 1021.0 1021.0 0.0
11/12:00pm 24.8 20.7 13.7 50 6.5 E 28 35 15 19 1021.2 1021.2 0.0
11/11:30am 26.2 21.4 11.8 40 8.2 ENE 28 41 15 22 1021.1 1021.1 0.0
11/11:00am 26.1 22.9 11.9 41 8.1 NE 20 33 11 18 1021.3 1021.3 0.0
11/10:30am 26.1 23.2 12.8 43 7.7 NE 20 28 11 15 1021.4 1021.4 0.0
11/10:00am 25.1 22.0 13.4 48 6.8 NE 22 30 12 16 1021.6 1021.6 0.0
11/09:30am 23.6 20.9 14.6 57 5.3 NE 22 32 12 17 1021.8 1021.8 0.0
11/09:00am 23.6 20.7 15.0 58 5.1 NNE 24 30 13 16 1022.1 1022.1 0.0
11/08:30am 23.0 20.6 15.3 62 4.6 NNE 22 30 12 16 1021.9 1021.9 0.0
11/08:00am 22.6 21.1 15.2 63 4.4 NNE 17 22 9 12 1021.7 1021.7 0.0
11/07:30am 22.3 20.9 15.6 66 4.0 NNE 17 22 9 12 1021.6 1021.6 0.0
11/07:00am 21.9 20.4 15.3 66 3.9 NNE 17 24 9 13 1021.3 1021.3 0.0
11/06:30am 21.2 19.6 14.9 67 3.7 NNE 17 22 9 12 1020.9 1020.9 0.0
11/06:00am 20.9 19.7 15.1 69 3.4 NNE 15 19 8 10 1020.8 1020.8 0.0
11/05:30am 20.7 18.8 15.1 70 3.3 NNE 19 24 10 13 1020.5 1020.5 0.0
11/05:00am 20.6 18.3 14.6 68 3.5 NE 20 28 11 15 1020.2 1020.2 0.0
11/04:30am 21.1 18.9 14.8 67 3.7 NE 20 26 11 14 1020.0 1020.0 0.0
11/04:00am 21.3 19.6 14.6 65 3.9 NE 17 26 9 14 1020.1 1020.1 0.0
11/03:30am 21.1 18.8 14.6 66 3.8 NE 20 30 11 16 1020.1 1020.1 0.0
11/03:00am 21.4 19.3 14.6 65 4.0 NE 19 26 10 14 1020.3 1020.3 0.0
11/02:30am 21.2 18.5 14.5 65 3.9 NE 22 30 12 16 1020.4 1020.4 0.0
11/02:00am 21.0 17.9 14.5 66 3.8 NE 24 33 13 18 1020.7 1020.7 0.0
11/01:30am 21.0 18.6 14.3 65 3.9 NE 20 26 11 14 1021.0 1021.0 0.0
11/01:00am 21.0 18.5 14.1 64 4.0 NE 20 28 11 15 1021.3 1021.3 0.0
11/12:30am 21.4 18.5 14.0 62 4.3 NE 22 28 12 15 1021.5 1021.5 0.0
11/12:00am 21.0 18.4 13.7 63 4.2 NE 20 28 11 15 1021.7 1021.7 0.0
 
Date/Time
EDT
Temp
°C
App
Temp
°C
Dew
Point
°C
Rel
Hum
%
Delta-T
°C
Wind Press
QNH
hPa
Press
MSL
hPa
Rain since
9am
mm
Dir  Spd
km/h
Gust
km/h
Spd
kts
Gust
kts
10/11:30pm 20.8 17.3 13.5 63 4.2 NE 24 32 13 17 1021.8 1021.8 0.0
10/11:00pm 21.3 17.8 13.4 60 4.5 NE 24 30 13 16 1021.8 1021.8 0.0
10/10:30pm 20.7 17.9 13.3 62 4.2 NE 20 30 11 16 1021.9 1021.9 0.0
10/10:00pm 21.4 17.8 13.2 59 4.7 NE 24 30 13 16 1021.9 1021.9 0.0
10/09:30pm 21.0 17.7 12.9 60 4.6 NE 22 28 12 15 1021.7 1021.7 0.0
10/09:00pm 21.5 17.0 12.7 57 5.0 NE 28 37 15 20 1021.5 1021.5 0.0
10/08:30pm 21.5 17.3 12.5 56 5.1 NE 26 35 14 19 1021.2 1021.2 0.0
10/08:00pm 21.3 16.4 12.6 57 4.9 NE 30 37 16 20 1020.6 1020.6 0.0
10/07:30pm 21.1 16.7 13.0 60 4.6 NE 28 39 15 21 1020.3 1020.3 0.0
10/07:00pm 21.7 17.2 12.7 56 5.1 NE 28 39 15 21 1019.9 1019.9 0.0
10/06:30pm 21.6 16.5 13.0 58 4.9 ENE 32 41 17 22 1019.5 1019.5 0.0
10/06:00pm 21.9 17.7 12.5 55 5.3 ENE 26 37 14 20 1019.3 1019.3 0.0
10/05:30pm 22.0 16.6 12.2 53 5.5 ENE 32 39 17 21 1019.2 1019.2 0.0
10/05:00pm 21.9 16.4 12.3 54 5.4 ENE 33 43 18 23 1019.3 1019.3 0.0
10/04:30pm 22.1 16.6 12.4 54 5.5 NE 33 43 18 23 1019.5 1019.5 0.0
10/04:00pm 21.9 16.9 12.3 54 5.4 ENE 30 39 16 21 1020.0 1020.0 0.0
10/03:30pm 22.5 17.6 12.4 52 5.7 ENE 30 41 16 22 1020.2 1020.2 0.0
10/03:00pm 22.5 17.5 12.2 52 5.8 ENE 30 41 16 22 1020.8 1020.8 0.0
10/02:30pm 22.1 17.2 11.3 50 6.0 ENE 28 35 15 19 1020.7 1020.7 0.0
10/02:00pm 21.7 16.6 11.8 53 5.5 E 30 37 16 20 1021.1 1021.1 0.0
10/01:30pm 21.9 17.0 11.2 50 5.9 ENE 28 35 15 19 1021.3 1021.3 0.0
10/01:00pm 22.4 17.4 11.0 48 6.3 E 28 35 15 19 1021.5 1021.5 0.0
10/12:30pm 21.6 17.1 11.5 52 5.6 E 26 35 14 19 1021.8 1021.8 0.0
10/12:00pm 21.6 17.4 11.1 51 5.8 ENE 24 32 13 17 1021.8 1021.8 0.0
10/11:30am 21.4 18.1 11.7 54 5.4 E 20 28 11 15 1022.3 1022.3 0.0
10/11:00am 23.1 20.4 11.7 48 6.4 ESE 17 26 9 14 1022.3 1022.3 0.0
10/10:30am 22.3 19.9 11.3 49 6.1 SE 15 24 8 13 1022.3 1022.3 0.0
10/10:00am 20.7 18.1 12.1 58 4.8 SSE 17 20 9 11 1022.6 1022.6 0.0
10/09:30am 21.5 19.2 11.8 54 5.4 SE 15 20 8 11 1022.7 1022.7 0.0
10/09:00am 20.3 18.5 12.2 59 4.5 ESE 13 17 7 9 1022.6 1022.6 0.0
10/08:30am 19.7 17.9 12.1 61 4.2 SE 13 15 7 8 1022.5 1022.5 0.0
10/08:00am 19.2 17.1 12.4 64 3.8 SE 15 19 8 10 1022.4 1022.4 0.0
10/07:30am 18.0 17.1 12.6 70 3.0 S 9 13 5 7 1022.1 1022.1 0.0
10/07:00am 17.9 16.9 12.3 70 3.1 WSW 9 11 5 6 1021.6 1021.6 0.0
10/06:30am 18.1 17.6 11.9 67 3.4 SSE 6 7 3 4 1021.1 1021.1 0.0
10/06:00am 17.3 16.5 13.0 76 2.4 S 9 11 5 6 1020.6 1020.6 0.0
10/05:30am 17.0 16.6 12.9 77 2.3 WSW 7 9 4 5 1020.3 1020.3 0.0
10/05:00am 16.5 14.8 11.1 70 2.9 WSW 11 13 6 7 1020.0 1020.0 0.0
10/04:30am 17.4 16.4 10.9 65 3.5 WNW 7 9 4 5 1019.7 1019.7 0.0
10/04:00am 17.7 16.7 11.0 65 3.6 NW 7 9 4 5 1019.6 1019.6 0.0
10/03:30am 18.1 16.8 11.3 64 3.7 SE 9 11 5 6 1019.4 1019.4 0.0
10/03:00am 18.6 16.7 11.7 64 3.8 SE 13 15 7 8 1019.1 1019.1 0.0
10/02:30am 19.0 16.8 10.9 59 4.4 SE 13 19 7 10 1019.0 1019.0 0.0
10/02:00am 18.5 16.2 10.5 59 4.3 SE 13 17 7 9 1019.1 1019.1 0.0
10/01:30am 18.9 16.2 10.3 57 4.6 SE 15 19 8 10 1018.9 1018.9 0.0
10/01:00am 18.9 16.6 10.3 57 4.6 SSE 13 15 7 8 1019.0 1019.0 0.0
10/12:30am 19.1 16.4 10.3 56 4.7 SSE 15 22 8 12 1019.2 1019.2 0.0
10/12:00am 19.1 16.0 10.3 56 4.7 SE 17 19 9 10 1019.1 1019.1 0.0
 
Date/Time
EDT
Temp
°C
App
Temp
°C
Dew
Point
°C
Rel
Hum
%
Delta-T
°C
Wind Press
QNH
hPa
Press
MSL
hPa
Rain since
9am
mm
Dir  Spd
km/h
Gust
km/h
Spd
kts
Gust
kts
09/11:30pm 19.2 16.1 10.2 56 4.8 SSE 17 24 9 13 1018.9 1018.9 0.0
09/11:00pm 19.1 15.9 9.9 55 4.9 SSE 17 22 9 12 1018.6 1018.6 0.0
09/10:30pm 19.1 16.0 10.3 56 4.7 SSE 17 22 9 12 1018.3 1018.3 0.0
09/10:00pm 19.4 15.0 10.5 56 4.8 SSE 24 30 13 16 1018.0 1018.0 0.0
09/09:30pm 19.3 14.5 10.4 56 4.8 SSE 26 30 14 16 1017.4 1017.4 0.0
09/09:00pm 19.6 15.1 10.1 54 5.1 SSE 24 30 13 16 1016.8 1016.8 0.0
09/08:30pm 19.8 14.9 9.9 53 5.3 SSE 26 30 14 16 1016.3 1016.3 0.0
09/08:00pm 20.0 15.7 9.4 50 5.6 SSE 22 30 12 16 1015.7 1015.7 0.0
09/07:30pm 20.4 15.3 10.7 53 5.3 SSE 28 32 15 17 1014.9 1014.9 0.0
09/07:00pm 20.9 16.1 10.2 50 5.8 SSE 26 32 14 17 1014.2 1014.2 0.0
09/06:30pm 21.1 16.5 10.9 52 5.6 SSE 26 33 14 18 1013.5 1013.5 0.0
09/06:00pm 21.6 17.7 10.9 50 5.9 SE 22 30 12 16 1012.7 1012.7 0.0
09/05:30pm 21.9 17.2 10.8 49 6.1 SE 26 32 14 17 1012.0 1012.0 0.0
09/05:00pm 22.4 17.6 11.7 50 6.0 SE 28 35 15 19 1011.5 1011.5 0.0
09/04:30pm 22.4 17.4 10.8 47 6.4 SE 28 33 15 18 1011.3 1011.3 0.0
09/04:00pm 22.9 17.8 10.6 45 6.8 SE 28 33 15 18 1010.8 1010.8 0.0
09/03:30pm 23.0 17.9 10.5 45 6.9 SE 28 35 15 19 1010.3 1010.3 0.0
09/03:00pm 23.6 17.4 11.5 46 6.8 SE 35 46 19 25 1010.0 1010.0 0.0
09/02:30pm 26.2 17.3 -4.8 12 13.2 W 33 48 18 26 1009.9 1009.9 0.0
09/02:12pm 26.4 18.5 -4.8 12 13.3 W 28 46 15 25 1010.0 1010.0 0.0
09/02:00pm 25.4 17.2 -4.4 13 12.7 WSW 30 41 16 22 1010.0 1010.0 0.0
09/01:30pm 24.3 15.4 -2.0 17 11.6 W 35 48 19 26 1009.8 1009.8 0.0
09/01:00pm 25.6 17.9 -0.2 18 11.9 W 30 41 16 22 1009.6 1009.6 0.0
09/12:30pm 24.3 16.1 0.5 21 11.0 W 33 52 18 28 1009.7 1009.7 0.0
09/12:00pm 24.0 14.5 1.8 23 10.5 W 41 57 22 31 1009.6 1009.6 0.0
09/11:48am 23.4 14.4 2.4 25 10.0 W 39 57 21 31 1009.6 1009.6 0.0
09/11:30am 23.7 14.7 2.3 24 10.2 WSW 39 54 21 29 1009.4 1009.4 0.0
09/11:00am 23.1 13.4 2.9 26 9.7 W 43 56 23 30 1009.0 1009.0 0.0
09/10:30am 22.4 13.1 2.9 27 9.3 W 41 56 22 30 1008.7 1008.7 0.0
09/10:14am 22.7 13.1 3.5 28 9.3 W 43 61 23 33 1008.6 1008.6 0.0
09/10:00am 22.0 12.4 3.2 29 9.0 W 43 56 23 30 1008.4 1008.4 0.0
09/09:30am 21.5 10.5 3.0 29 8.8 W 50 61 27 33 1008.4 1008.4 0.0
09/09:00am 20.4 10.5 3.0 31 8.2 W 44 57 24 31 1008.1 1008.1 0.0
09/08:47am 20.6 11.2 4.3 34 7.9 W 43 63 23 34 1008.0 1008.0 0.0
09/08:30am 20.0 10.3 3.9 34 7.7 W 44 59 24 32 1008.0 1008.0 0.0
09/08:00am 19.9 12.0 4.4 36 7.5 W 35 46 19 25 1008.1 1008.1 0.0
09/07:30am 19.2 10.9 4.1 37 7.2 W 37 52 20 28 1007.9 1007.9 0.0
09/07:17am 19.1 11.1 3.7 36 7.3 W 35 56 19 30 1007.8 1007.8 0.0
09/07:00am 18.9 11.3 4.0 37 7.1 W 33 46 18 25 1007.4 1007.4 0.0
09/06:30am 18.5 10.8 3.6 37 7.0 W 33 44 18 24 1006.8 1006.8 0.0
09/06:08am 18.6 9.1 3.8 37 7.0 WSW 43 61 23 33 1006.5 1006.5 0.0
09/06:00am 18.6 8.6 4.1 38 6.9 WSW 46 61 25 33 1006.4 1006.4 0.0
09/05:30am 18.8 10.1 4.1 37 7.0 W 39 54 21 29 1005.8 1005.8 0.0
09/05:00am 18.6 13.1 6.1 44 6.2 WSW 24 32 13 17 1005.1 1005.1 0.0
09/04:30am 18.9 13.0 5.7 42 6.5 WSW 26 35 14 19 1004.5 1004.5 0.0
09/04:00am 19.2 12.1 5.6 41 6.7 WSW 32 41 17 22 1004.3 1004.3 0.0
09/03:30am 19.5 12.3 5.8 40 6.8 WSW 33 43 18 23 1003.8 1003.8 0.0
09/03:00am 20.3 11.4 5.0 36 7.5 WSW 41 56 22 30 1003.3 1003.3 0.0
09/02:46am 20.6 12.2 5.5 37 7.5 WSW 39 54 21 29 1002.9 1002.9 0.0
09/02:30am 20.7 14.1 4.2 33 8.0 WSW 28 35 15 19 1002.9 1002.9 0.0
09/02:00am 21.0 13.9 3.8 32 8.3 W 30 37 16 20 1002.1 1002.1 0.0
09/01:30am 21.3 12.3 4.6 33 8.2 W 41 54 22 29 1001.7 1001.7 0.0
09/01:00am 21.9 10.8 6.4 36 7.9 WSW 54 69 29 37 1000.6 1000.6 0.0
09/12:30am 24.3 17.3 13.8 52 6.2 W 43 54 23 29 999.5 999.5 0.0
09/12:17am 26.4 22.6 13.6 45 7.5 W 26 54 14 29 999.0 999.0 0.0
09/12:00am 26.7 24.1 13.1 43 8.0 WNW 19 24 10 13 998.4 998.4 0.0
 
Date/Time
EDT
Temp
°C
App
Temp
°C
Dew
Point
°C
Rel
Hum
%
Delta-T
°C
Wind Press
QNH
hPa
Press
MSL
hPa
Rain since
9am
mm
Dir  Spd
km/h
Gust
km/h
Spd
kts
Gust
kts
08/11:30pm 27.1 23.9 13.2 42 8.2 WNW 22 37 12 20 998.5 998.5 0.0
08/11:00pm 26.7 23.3 13.8 45 7.7 W 24 41 13 22 998.4 998.4 0.0
08/10:30pm 26.0 25.3 17.4 59 5.4 WSW 17 28 9 15 999.2 999.2 0.0
08/10:00pm 24.4 26.7 22.0 86 1.6 S 13 17 7 9 999.0 999.0 0.0
08/09:30pm 24.9 26.3 21.9 83 2.0 S 17 22 9 12 998.4 998.4 0.0
08/09:11pm 26.3 25.7 21.2 73 3.4 SW 26 41 14 22 998.3 998.3 0.0
08/09:00pm 25.7 25.7 20.9 75 3.2 N 22 48 12 26 998.3 998.3 0.0
08/08:30pm 25.4 23.4 20.7 75 3.1 NNE 32 39 17 21 996.2 996.2 0.0
08/08:00pm 25.9 23.8 20.6 72 3.5 NNE 32 43 17 23 996.0 996.0 0.0
08/07:30pm 26.8 24.6 20.3 67 4.3 NNE 32 43 17 23 996.0 996.0 0.0
08/07:00pm 27.4 23.5 20.3 65 4.7 NE 41 54 22 29 996.3 996.3 0.0
08/06:30pm 27.3 22.8 20.2 65 4.6 NE 44 56 24 30 996.1 996.1 0.0
08/06:00pm 27.8 22.4 20.0 62 5.1 NE 48 65 26 35 996.2 996.2 0.0
08/05:30pm 28.2 21.8 19.6 59 5.6 NE 52 67 28 36 996.3 996.3 0.0
08/05:00pm 27.1 21.6 19.8 64 4.8 NE 48 65 26 35 996.8 996.8 0.0
08/04:35pm 27.7 23.6 19.9 62 5.1 NNE 41 61 22 33 997.4 997.4 0.0

Other Formats:

Comma delimited format used in spreadsheet applications
http://www.bom.gov.au/fwo/IDN60801/IDN60801.94767.axf

JavaScript Object Notation format (JSON) in row-major order
http://www.bom.gov.au/fwo/IDN60801/IDN60801.94767.json